Terminal Aerodrome Forecast
Issued by NWS Jackson, MS

Home | Current Version | Previous Version | Text Only | Print | Product List | Glossary On
Versions: 1 2 3 4 5 6 7 8 9 10 11 12 13 14 15 16 17
000
FTUS44 KJAN 011100
TAFHBG
TAF
KHBG 011128Z 0112/0212 11008KT 6SM BR OVC007
     FM011800 15006KT 4SM -RA BR OVC007
     FM020300 13003KT 5SM BR OVC003
     FM021000 00000KT 1/2SM FG OVC001=

USA.gov is the U.S. government's official web portal to all federal, state and local government web resources and services.